createdAt,value
2018-09-10T00:00:45.608Z,0.00
2018-09-10T00:01:45.595Z,0.00
2018-09-10T00:02:45.588Z,0.00
2018-09-10T00:03:45.573Z,0.00
2018-09-10T00:04:45.581Z,0.00
2018-09-10T00:05:45.550Z,0.00
2018-09-10T00:06:45.542Z,0.00
2018-09-10T00:07:45.527Z,0.00
2018-09-10T00:08:45.511Z,0.00
2018-09-10T00:09:45.530Z,0.00
2018-09-10T00:10:45.495Z,0.00
2018-09-10T00:11:45.478Z,0.00
2018-09-10T00:12:45.474Z,0.00
2018-09-10T00:13:45.453Z,0.00
2018-09-10T00:14:45.467Z,0.00
2018-09-10T00:15:45.436Z,0.00
2018-09-10T00:16:45.422Z,0.00
2018-09-10T00:17:45.412Z,0.00
2018-09-10T00:18:45.405Z,0.00
2018-09-10T00:19:45.406Z,0.00
2018-09-10T00:20:45.380Z,0.00
2018-09-10T00:21:45.370Z,0.00
2018-09-10T00:22:45.351Z,0.00
2018-09-10T00:23:45.347Z,0.00
2018-09-10T00:24:45.356Z,0.00
2018-09-10T00:25:45.324Z,0.00
2018-09-10T00:26:45.313Z,0.00
2018-09-10T00:27:45.293Z,0.00
2018-09-10T00:28:45.287Z,0.00
2018-09-10T00:29:45.296Z,0.00
2018-09-10T00:30:45.258Z,0.00
2018-09-10T00:31:45.254Z,0.00
2018-09-10T00:32:45.239Z,0.00
2018-09-10T00:33:45.227Z,0.00
2018-09-10T00:34:45.235Z,0.00
2018-09-10T00:35:45.209Z,0.00
2018-09-10T00:36:45.192Z,0.00
2018-09-10T00:37:45.182Z,0.00
2018-09-10T00:38:45.174Z,0.00
2018-09-10T00:39:45.175Z,0.00
2018-09-10T00:40:45.143Z,0.00
2018-09-10T00:41:45.138Z,0.00
2018-09-10T00:42:45.117Z,0.00
2018-09-10T00:43:45.115Z,0.00
2018-09-10T00:44:45.126Z,0.00
2018-09-10T00:45:45.084Z,0.00
2018-09-10T00:46:45.081Z,0.00
2018-09-10T00:47:45.062Z,0.00
2018-09-10T00:48:45.059Z,0.00
2018-09-10T00:49:45.060Z,0.00
2018-09-10T00:50:45.029Z,0.00
2018-09-10T00:51:45.021Z,0.00
2018-09-10T00:52:45.004Z,0.00
2018-09-10T00:53:44.995Z,0.00
2018-09-10T00:54:45.004Z,0.00
2018-09-10T00:55:44.972Z,0.00
2018-09-10T00:56:44.964Z,0.00
2018-09-10T00:57:44.953Z,0.00
2018-09-10T00:58:44.937Z,0.00
2018-09-10T00:59:44.951Z,0.00
2018-09-10T01:00:44.918Z,0.00
2018-09-10T01:01:44.902Z,0.00
2018-09-10T01:02:44.894Z,0.00
2018-09-10T01:03:44.880Z,0.00
2018-09-10T01:04:44.894Z,0.00
2018-09-10T01:05:44.858Z,0.00
2018-09-10T01:06:44.844Z,0.00
2018-09-10T01:07:44.841Z,0.00
2018-09-10T01:08:44.829Z,0.00
2018-09-10T01:09:44.831Z,0.00
2018-09-10T01:10:44.800Z,0.00
2018-09-10T01:11:44.787Z,0.00
2018-09-10T01:12:44.779Z,0.00
2018-09-10T01:13:44.764Z,0.00
2018-09-10T01:14:44.771Z,0.00
2018-09-10T01:15:44.746Z,0.00
2018-09-10T01:16:44.728Z,0.00
2018-09-10T01:17:44.724Z,0.00
2018-09-10T01:18:44.711Z,0.00
2018-09-10T01:19:44.711Z,0.00
2018-09-10T01:20:44.681Z,0.00
2018-09-10T01:21:44.667Z,0.00
2018-09-10T01:22:44.658Z,0.00
2018-09-10T01:23:44.650Z,0.00
2018-09-10T01:24:44.655Z,0.00
2018-09-10T01:25:44.629Z,0.00
2018-09-10T01:26:44.609Z,0.00
2018-09-10T01:27:44.601Z,0.00
2018-09-10T01:28:44.595Z,0.00
2018-09-10T01:29:44.601Z,0.00
2018-09-10T01:30:44.567Z,0.00
2018-09-10T01:31:44.560Z,0.00
2018-09-10T01:32:44.541Z,0.00
2018-09-10T01:33:44.537Z,0.00
2018-09-10T01:34:44.544Z,0.00
2018-09-10T01:35:44.509Z,0.00
2018-09-10T01:36:44.494Z,0.00
2018-09-10T01:37:44.485Z,0.00
2018-09-10T01:38:44.473Z,0.00
2018-09-10T01:39:44.491Z,0.00
2018-09-10T01:40:44.451Z,0.00
2018-09-10T01:41:44.444Z,0.00
2018-09-10T01:42:44.431Z,0.00
2018-09-10T01:43:44.415Z,0.00
2018-09-10T01:44:44.426Z,0.00
2018-09-10T01:45:44.399Z,0.00
2018-09-10T01:46:44.378Z,0.00
2018-09-10T01:47:44.376Z,0.00
2018-09-10T01:48:44.367Z,0.00
2018-09-10T01:49:44.369Z,0.00
2018-09-10T01:50:44.346Z,0.00
2018-09-10T01:51:44.323Z,0.00
2018-09-10T01:52:44.321Z,0.00
2018-09-10T01:53:44.305Z,0.00
2018-09-10T01:54:44.313Z,0.00
2018-09-10T01:55:44.283Z,0.00
2018-09-10T01:56:44.274Z,0.00
2018-09-10T01:57:44.307Z,0.00
2018-09-10T01:58:44.250Z,0.00
2018-09-10T01:59:44.255Z,0.00
2018-09-10T02:00:44.224Z,0.00
2018-09-10T02:01:44.218Z,0.00
2018-09-10T02:02:44.201Z,0.00
2018-09-10T02:03:44.185Z,0.00
2018-09-10T02:04:44.203Z,0.00
2018-09-10T02:05:44.161Z,0.00
2018-09-10T02:06:44.153Z,0.00
2018-09-10T02:07:44.144Z,0.00
2018-09-10T02:08:44.134Z,0.00
2018-09-10T02:09:44.135Z,0.00
2018-09-10T02:10:44.111Z,0.00
2018-09-10T02:11:44.090Z,0.00
2018-09-10T02:12:44.077Z,0.00
2018-09-10T02:13:44.077Z,0.00
2018-09-10T02:14:44.077Z,0.00
2018-09-10T02:15:44.052Z,0.00
2018-09-10T02:16:44.039Z,0.00
2018-09-10T02:17:44.019Z,0.00
2018-09-10T02:18:44.016Z,0.00
2018-09-10T02:19:44.019Z,0.00
2018-09-10T02:20:43.984Z,0.00
2018-09-10T02:21:43.982Z,0.00
2018-09-10T02:22:43.961Z,0.00
2018-09-10T02:23:44.035Z,0.00
2018-09-10T02:24:43.960Z,0.00
2018-09-10T02:25:43.935Z,0.00
2018-09-10T02:26:43.915Z,0.00
2018-09-10T02:27:43.918Z,0.00
2018-09-10T02:28:43.894Z,0.00
2018-09-10T02:29:43.903Z,0.00
2018-09-10T02:30:43.871Z,0.00
2018-09-10T02:31:43.857Z,0.00
2018-09-10T02:32:43.851Z,0.00
2018-09-10T02:33:43.835Z,0.00
2018-09-10T02:34:43.852Z,0.00
2018-09-10T02:35:43.812Z,0.00
2018-09-10T02:36:43.802Z,0.00
2018-09-10T02:37:43.798Z,0.00
2018-09-10T02:38:43.780Z,0.00
2018-09-10T02:39:43.791Z,0.00
2018-09-10T02:40:43.759Z,0.00
2018-09-10T02:41:43.745Z,0.00
2018-09-10T02:42:43.732Z,0.00
2018-09-10T02:43:43.722Z,0.00
2018-09-10T02:44:43.734Z,0.00
2018-09-10T02:45:43.705Z,0.00
2018-09-10T02:46:43.681Z,0.00
2018-09-10T02:47:43.671Z,0.00
2018-09-10T02:48:43.662Z,0.00
2018-09-10T02:49:43.671Z,0.00
2018-09-10T02:50:43.635Z,0.00
2018-09-10T02:51:43.631Z,0.00
2018-09-10T02:52:43.614Z,0.00
2018-09-10T02:53:43.605Z,0.00
2018-09-10T02:54:43.617Z,0.00
2018-09-10T02:55:43.578Z,0.00
2018-09-10T02:56:43.567Z,0.00
2018-09-10T02:57:43.559Z,0.00
2018-09-10T02:58:43.544Z,0.00
2018-09-10T02:59:43.550Z,0.00
2018-09-10T03:00:43.517Z,0.00
2018-09-10T03:01:43.509Z,0.00
2018-09-10T03:02:43.493Z,0.00
2018-09-10T03:03:43.491Z,0.00
2018-09-10T03:04:43.504Z,0.00
2018-09-10T03:05:43.457Z,0.00
2018-09-10T03:06:43.454Z,0.00
2018-09-10T03:07:43.435Z,0.00
2018-09-10T03:08:43.422Z,0.00
2018-09-10T03:09:43.441Z,0.00
2018-09-10T03:10:43.399Z,0.00
2018-09-10T03:11:43.399Z,0.00
2018-09-10T03:12:43.379Z,0.00
2018-09-10T03:13:43.374Z,0.00
2018-09-10T03:14:43.374Z,0.00
2018-09-10T03:15:43.349Z,0.00
2018-09-10T03:16:43.332Z,0.00
2018-09-10T03:17:43.346Z,0.00
2018-09-10T03:18:43.309Z,0.00
2018-09-10T03:19:43.330Z,0.00
2018-09-10T03:20:43.288Z,0.00
2018-09-10T03:21:43.274Z,0.00
2018-09-10T03:22:43.259Z,0.00
2018-09-10T03:23:43.256Z,0.00
2018-09-10T03:24:43.242Z,0.00
2018-09-10T03:25:43.254Z,0.00
2018-09-10T03:26:43.219Z,0.00
2018-09-10T03:27:43.199Z,0.00
2018-09-10T03:28:43.193Z,0.00
2018-09-10T03:29:43.182Z,0.00
2018-09-10T03:30:43.189Z,0.00
2018-09-10T03:31:43.158Z,0.00
2018-09-10T03:32:43.144Z,0.00
2018-09-10T03:33:43.211Z,0.00
2018-09-10T03:34:43.126Z,0.00
2018-09-10T03:35:43.136Z,0.00
2018-09-10T03:36:43.104Z,0.00
2018-09-10T03:37:43.083Z,0.00
2018-09-10T03:38:43.077Z,0.00
2018-09-10T03:39:43.065Z,0.00
2018-09-10T03:40:43.084Z,0.00
2018-09-10T03:41:43.046Z,0.00
2018-09-10T03:42:43.033Z,0.00
2018-09-10T03:43:43.016Z,0.00
2018-09-10T03:44:43.008Z,0.00
2018-09-10T03:45:42.993Z,0.00
2018-09-10T03:46:43.009Z,0.00
2018-09-10T03:47:42.976Z,0.00
2018-09-10T03:48:42.964Z,0.00
2018-09-10T03:49:42.950Z,0.00
2018-09-10T03:50:42.941Z,0.00
2018-09-10T03:51:42.926Z,0.00
2018-09-10T03:52:42.938Z,0.00
2018-09-10T03:53:42.899Z,0.00
2018-09-10T03:54:42.887Z,0.00
2018-09-10T03:55:42.886Z,0.00
2018-09-10T03:56:42.865Z,0.00
2018-09-10T03:57:42.880Z,0.00
2018-09-10T03:58:42.849Z,0.00
2018-09-10T03:59:42.826Z,0.00
2018-09-10T04:00:42.823Z,0.00
2018-09-10T04:01:42.804Z,0.00
2018-09-10T04:02:42.822Z,0.00
2018-09-10T04:03:42.792Z,0.00
2018-09-10T04:04:42.774Z,0.00
2018-09-10T04:05:42.764Z,0.00
2018-09-10T04:06:42.750Z,0.00
2018-09-10T04:07:42.765Z,0.00
2018-09-10T04:08:42.729Z,0.00
2018-09-10T04:09:42.711Z,0.00
2018-09-10T04:10:42.707Z,0.00
2018-09-10T04:11:42.686Z,0.00
2018-09-10T04:12:42.673Z,0.00
2018-09-10T04:13:42.694Z,0.00
2018-09-10T04:14:42.651Z,0.00
2018-09-10T04:15:42.648Z,0.00
2018-09-10T04:16:42.633Z,0.00
2018-09-10T04:17:42.621Z,0.00
2018-09-10T04:18:42.626Z,0.00
2018-09-10T04:19:42.595Z,0.00
2018-09-10T04:20:42.589Z,0.00
2018-09-10T04:21:42.575Z,0.00
2018-09-10T04:22:42.559Z,0.00
2018-09-10T04:23:42.579Z,0.00
2018-09-10T04:24:42.539Z,0.00
2018-09-10T04:25:42.525Z,0.00
2018-09-10T04:26:42.510Z,0.00
2018-09-10T04:27:42.506Z,4.00
2018-09-10T04:28:42.491Z,4.00
2018-09-10T04:29:42.503Z,4.00
2018-09-10T04:30:42.474Z,0.00
2018-09-10T04:31:42.451Z,0.00
2018-09-10T04:32:42.456Z,4.00
2018-09-10T04:33:42.427Z,4.00
2018-09-10T04:34:42.448Z,8.00
2018-09-10T04:35:42.411Z,4.00
2018-09-10T04:36:42.400Z,8.00
2018-09-10T04:37:42.392Z,8.00
2018-09-10T04:38:42.375Z,8.00
2018-09-10T04:39:42.383Z,8.00
2018-09-10T04:40:42.355Z,12.00
2018-09-10T04:41:42.335Z,16.00
2018-09-10T04:42:42.331Z,16.00
2018-09-10T04:43:42.317Z,24.00
2018-09-10T04:44:42.325Z,24.00
2018-09-10T04:45:42.297Z,32.00
2018-09-10T04:46:42.282Z,36.00
2018-09-10T04:47:42.269Z,44.00
2018-09-10T04:48:42.259Z,48.00
2018-09-10T04:49:42.324Z,56.00
2018-09-10T04:50:42.235Z,60.00
2018-09-10T04:51:42.227Z,72.00
2018-09-10T04:52:42.215Z,76.00
2018-09-10T04:53:42.201Z,88.00
2018-09-10T04:54:42.219Z,104.00
2018-09-10T04:55:42.170Z,124.00
2018-09-10T04:56:42.165Z,136.00
2018-09-10T04:57:42.151Z,144.00
2018-09-10T04:58:42.144Z,156.00
2018-09-10T04:59:42.127Z,180.00
2018-09-10T05:00:42.137Z,200.00
2018-09-10T05:01:42.107Z,224.00
2018-09-10T05:02:42.093Z,252.00
2018-09-10T05:03:42.084Z,280.00
2018-09-10T05:04:42.071Z,312.00
2018-09-10T05:05:42.088Z,344.00
2018-09-10T05:06:42.051Z,376.00
2018-09-10T05:07:42.038Z,412.00
2018-09-10T05:08:42.021Z,452.00
2018-09-10T05:09:42.013Z,496.00
2018-09-10T05:10:42.005Z,536.00
2018-09-10T05:11:42.012Z,580.00
2018-09-10T05:12:41.983Z,616.00
2018-09-10T05:13:41.963Z,660.00
2018-09-10T05:14:41.961Z,708.00
2018-09-10T05:15:41.941Z,768.00
2018-09-10T05:16:41.950Z,824.00
2018-09-10T05:17:41.926Z,884.00
2018-09-10T05:18:41.909Z,936.00
2018-09-10T05:19:41.904Z,980.00
2018-09-10T05:20:41.889Z,1024.00
2018-09-10T05:21:41.896Z,1056.00
2018-09-10T05:22:41.862Z,1092.00
2018-09-10T05:23:41.856Z,1116.00
2018-09-10T05:24:41.846Z,1144.00
2018-09-10T05:25:41.832Z,1168.00
2018-09-10T05:26:41.847Z,1192.00
2018-09-10T05:27:41.803Z,1220.00
2018-09-10T05:28:41.791Z,1264.00
2018-09-10T05:29:41.788Z,1316.00
2018-09-10T05:30:41.776Z,1380.00
2018-09-10T05:31:41.791Z,1456.00
2018-09-10T05:32:41.756Z,1532.00
2018-09-10T05:33:41.736Z,1608.00
2018-09-10T05:34:41.729Z,1680.00
2018-09-10T05:35:41.718Z,1756.00
2018-09-10T05:36:41.710Z,1832.00
2018-09-10T05:37:41.716Z,1916.00
2018-09-10T05:38:41.681Z,2000.00
2018-09-10T05:39:41.673Z,2088.00
2018-09-10T05:40:41.655Z,2152.00
2018-09-10T05:41:41.708Z,2204.00
2018-09-10T05:42:41.666Z,2236.00
2018-09-10T05:43:41.629Z,2248.00
2018-09-10T05:44:41.616Z,2264.00
2018-09-10T05:45:41.605Z,2280.00
2018-09-10T05:46:41.596Z,2292.00
2018-09-10T05:47:41.605Z,2324.00
2018-09-10T05:48:41.570Z,2348.00
2018-09-10T05:49:41.558Z,2376.00
2018-09-10T05:50:41.542Z,2412.00
2018-09-10T05:51:41.539Z,2472.00
2018-09-10T05:52:41.524Z,2564.00
2018-09-10T05:53:41.532Z,2636.00
2018-09-10T05:54:41.502Z,2696.00
2018-09-10T05:55:41.564Z,2740.00
2018-09-10T05:56:41.476Z,2776.00
2018-09-10T05:57:41.466Z,2804.00
2018-09-10T05:58:41.476Z,2828.00
2018-09-10T05:59:41.448Z,2848.00
2018-09-10T06:00:41.439Z,2864.00
2018-09-10T06:01:41.425Z,2896.00
2018-09-10T06:02:41.411Z,2952.00
2018-09-10T06:03:41.417Z,3016.00
2018-09-10T06:04:41.384Z,3040.00
2018-09-10T06:05:41.376Z,3036.00
2018-09-10T06:06:41.361Z,2988.00
2018-09-10T06:07:41.352Z,2940.00
2018-09-10T06:08:41.429Z,2928.00
2018-09-10T06:09:41.323Z,2984.00
2018-09-10T06:10:41.321Z,3088.00
2018-09-10T06:11:41.301Z,3232.00
2018-09-10T06:12:41.296Z,3408.00
2018-09-10T06:13:41.286Z,3576.00
2018-09-10T06:14:41.290Z,3732.00
2018-09-10T06:15:41.264Z,3860.00
2018-09-10T06:16:41.322Z,3940.00
2018-09-10T06:17:41.230Z,4076.00
2018-09-10T06:18:41.230Z,4300.00
2018-09-10T06:19:41.231Z,4584.00
2018-09-10T06:20:41.197Z,4956.00
2018-09-10T06:21:41.194Z,5380.00
2018-09-10T06:22:41.175Z,5864.00
2018-09-10T06:23:41.170Z,6340.00
2018-09-10T06:24:41.181Z,6736.00
2018-09-10T06:25:41.141Z,7052.00
2018-09-10T06:26:41.130Z,7216.00
2018-09-10T06:27:41.116Z,7180.00
2018-09-10T06:28:41.113Z,6996.00
2018-09-10T06:29:41.127Z,6668.00
2018-09-10T06:30:41.081Z,6360.00
2018-09-10T06:31:41.075Z,6128.00
2018-09-10T06:32:41.060Z,6004.00
2018-09-10T06:33:41.053Z,5988.00
2018-09-10T06:34:41.038Z,6116.00
2018-09-10T06:35:41.049Z,6316.00
2018-09-10T06:36:41.021Z,6464.00
2018-09-10T06:37:41.014Z,6664.00
2018-09-10T06:38:40.988Z,6860.00
2018-09-10T06:39:41.000Z,6956.00
2018-09-10T06:40:40.987Z,7072.00
2018-09-10T06:41:40.956Z,7116.00
2018-09-10T06:42:40.949Z,7016.00
2018-09-10T06:43:40.929Z,6996.00
2018-09-10T06:44:40.928Z,7016.00
2018-09-10T06:45:40.936Z,7152.00
2018-09-10T06:46:40.893Z,7288.00
2018-09-10T06:47:40.903Z,7432.00
2018-09-10T06:48:40.873Z,7620.00
2018-09-10T06:49:40.864Z,7788.00
2018-09-10T06:50:40.855Z,7932.00
2018-09-10T06:51:40.856Z,7888.00
2018-09-10T06:52:40.831Z,7800.00
2018-09-10T06:53:40.815Z,7756.00
2018-09-10T06:54:40.803Z,7596.00
2018-09-10T06:55:40.798Z,7524.00
2018-09-10T06:56:40.801Z,7492.00
2018-09-10T06:57:40.777Z,7572.00
2018-09-10T06:58:40.760Z,7560.00
2018-09-10T06:59:40.744Z,7220.00
2018-09-10T07:00:40.739Z,7036.00
2018-09-10T07:01:40.741Z,7468.00
2018-09-10T07:02:40.714Z,7408.00
2018-09-10T07:03:40.701Z,7108.00
2018-09-10T07:04:40.695Z,6552.00
2018-09-10T07:05:40.673Z,6456.00
2018-09-10T07:06:40.693Z,6720.00
2018-09-10T07:07:40.657Z,6732.00
2018-09-10T07:08:40.650Z,6724.00
2018-09-10T07:09:40.634Z,7076.00
2018-09-10T07:10:40.622Z,6924.00
2018-09-10T07:11:40.639Z,6928.00
2018-09-10T07:12:40.669Z,6680.00
2018-09-10T07:13:40.583Z,6728.00
2018-09-10T07:14:40.570Z,7024.00
2018-09-10T07:15:40.566Z,7264.00
2018-09-10T07:16:40.551Z,7356.00
2018-09-10T07:17:40.563Z,8180.00
2018-09-10T07:18:40.582Z,9128.00
2018-09-10T07:19:40.512Z,9100.00
2018-09-10T07:20:40.505Z,8360.00
2018-09-10T07:21:40.491Z,8584.00
2018-09-10T07:22:40.507Z,8340.00
2018-09-10T07:23:40.473Z,8788.00
2018-09-10T07:24:40.460Z,9712.00
2018-09-10T07:25:40.452Z,12080.00
2018-09-10T07:26:40.440Z,13668.00
2018-09-10T07:27:40.440Z,15420.00
2018-09-10T07:28:40.418Z,18272.00
2018-09-10T07:29:40.397Z,21760.00
2018-09-10T07:30:40.388Z,21440.00
2018-09-10T07:31:40.383Z,22144.00
2018-09-10T07:32:40.392Z,23392.00
2018-09-10T07:33:40.358Z,23744.00
2018-09-10T07:34:40.399Z,22176.00
2018-09-10T07:35:40.332Z,24224.00
2018-09-10T07:36:40.319Z,23584.00
2018-09-10T07:37:40.305Z,21344.00
2018-09-10T07:38:40.325Z,20576.00
2018-09-10T07:39:40.283Z,19488.00
2018-09-10T07:40:40.277Z,19008.00
2018-09-10T07:41:40.261Z,18464.00
2018-09-10T07:42:40.248Z,18112.00
2018-09-10T07:43:40.297Z,17856.00
2018-09-10T07:44:40.230Z,17536.00
2018-09-10T07:45:40.215Z,17108.00
2018-09-10T07:46:40.200Z,16852.00
2018-09-10T07:47:40.198Z,16904.00
2018-09-10T07:48:40.203Z,17376.00
2018-09-10T07:49:40.171Z,18080.00
2018-09-10T07:50:40.162Z,20032.00
2018-09-10T07:51:40.141Z,22752.00
2018-09-10T07:52:40.131Z,19648.00
2018-09-10T07:53:40.146Z,19520.00
2018-09-10T07:54:40.158Z,19232.00
2018-09-10T07:55:40.104Z,18304.00
2018-09-10T07:56:40.095Z,17376.00
2018-09-10T07:57:40.073Z,17632.00
2018-09-10T07:58:40.098Z,17888.00
2018-09-10T07:59:40.059Z,17568.00
2018-09-10T08:00:40.055Z,17696.00
2018-09-10T08:01:40.027Z,17824.00
2018-09-10T08:02:40.025Z,18592.00
2018-09-10T08:03:40.005Z,18944.00
2018-09-10T08:04:40.020Z,17504.00
2018-09-10T08:05:39.991Z,16420.00
2018-09-10T08:06:39.970Z,15300.00
2018-09-10T08:07:39.967Z,14376.00
2018-09-10T08:08:39.958Z,13592.00
2018-09-10T08:09:40.049Z,13240.00
2018-09-10T08:10:39.928Z,13432.00
2018-09-10T08:11:39.915Z,13720.00
2018-09-10T08:12:39.902Z,13760.00
2018-09-10T08:13:39.901Z,14188.00
2018-09-10T08:14:39.881Z,15108.00
2018-09-10T08:15:39.900Z,16344.00
2018-09-10T08:16:39.907Z,17760.00
2018-09-10T08:17:39.848Z,18368.00
2018-09-10T08:18:39.836Z,18496.00
2018-09-10T08:19:39.833Z,18400.00
2018-09-10T08:20:39.849Z,17984.00
2018-09-10T08:21:39.808Z,17760.00
2018-09-10T08:22:39.799Z,17632.00
2018-09-10T08:23:39.777Z,17472.00
2018-09-10T08:24:39.767Z,17204.00
2018-09-10T08:25:39.761Z,17176.00
2018-09-10T08:26:39.765Z,17632.00
2018-09-10T08:27:39.739Z,17824.00
2018-09-10T08:28:39.731Z,17824.00
2018-09-10T08:29:39.714Z,17632.00
2018-09-10T08:30:39.731Z,17116.00
2018-09-10T08:31:39.693Z,16180.00
2018-09-10T08:32:39.692Z,14908.00
2018-09-10T08:33:39.665Z,14064.00
2018-09-10T08:34:39.657Z,14404.00
2018-09-10T08:35:39.649Z,15344.00
2018-09-10T08:36:39.653Z,16756.00
2018-09-10T08:37:39.628Z,17856.00
2018-09-10T08:38:39.613Z,17888.00
2018-09-10T08:39:39.600Z,17920.00
2018-09-10T08:40:39.623Z,17600.00
2018-09-10T08:41:39.581Z,17664.00
2018-09-10T08:42:39.584Z,18176.00
2018-09-10T08:43:39.561Z,19840.00
2018-09-10T08:44:39.541Z,22304.00
2018-09-10T08:45:39.539Z,21600.00
2018-09-10T08:46:39.549Z,21792.00
2018-09-10T08:47:39.518Z,22112.00
2018-09-10T08:48:39.503Z,23680.00
2018-09-10T08:49:39.493Z,25440.00
2018-09-10T08:50:39.505Z,26976.00
2018-09-10T08:51:39.473Z,28352.00
2018-09-10T08:52:39.455Z,28960.00
2018-09-10T08:53:39.448Z,30720.00
2018-09-10T08:54:39.611Z,32544.00
2018-09-10T08:55:39.566Z,32000.00
2018-09-10T08:56:39.436Z,31872.00
2018-09-10T08:57:39.403Z,31776.00
2018-09-10T08:58:39.382Z,32128.00
2018-09-10T08:59:39.380Z,33088.00
2018-09-10T09:00:39.364Z,33280.00
2018-09-10T09:01:39.379Z,30368.00
2018-09-10T09:02:39.345Z,29376.00
2018-09-10T09:03:39.331Z,28416.00
2018-09-10T09:04:39.324Z,28320.00
2018-09-10T09:05:39.302Z,27040.00
2018-09-10T09:06:39.331Z,26304.00
2018-09-10T09:07:39.280Z,23968.00
2018-09-10T09:08:39.270Z,24928.00
2018-09-10T09:09:39.268Z,27840.00
2018-09-10T09:10:39.245Z,27232.00
2018-09-10T09:11:39.244Z,28160.00
2018-09-10T09:12:39.249Z,31616.00
2018-09-10T09:13:39.217Z,27584.00
2018-09-10T09:14:39.210Z,27648.00
2018-09-10T09:15:39.190Z,33664.00
2018-09-10T09:16:39.185Z,37696.00
2018-09-10T09:17:39.193Z,69824.00
2018-09-10T09:18:39.156Z,46560.00
2018-09-10T09:19:39.154Z,66336.00
2018-09-10T09:20:39.136Z,61312.00
2018-09-10T09:21:39.131Z,67584.00
2018-09-10T09:22:39.138Z,66752.00
2018-09-10T09:23:39.215Z,74816.00
2018-09-10T09:24:39.097Z,63744.00
2018-09-10T09:25:39.077Z,71232.00
2018-09-10T09:26:39.069Z,56448.00
2018-09-10T09:27:39.090Z,62688.00
2018-09-10T09:28:39.043Z,70944.00
2018-09-10T09:29:39.048Z,69088.00
2018-09-10T09:30:39.027Z,47744.00
2018-09-10T09:31:39.013Z,43744.00
2018-09-10T09:32:39.008Z,49728.00
2018-09-10T09:33:39.011Z,49376.00
2018-09-10T09:34:38.980Z,52448.00
2018-09-10T09:35:38.973Z,59872.00
2018-09-10T09:36:38.959Z,77248.00
2018-09-10T09:37:38.951Z,48096.00
2018-09-10T09:38:38.965Z,62880.00
2018-09-10T09:39:38.923Z,62880.00
2018-09-10T09:40:38.918Z,59872.00
2018-09-10T09:41:38.903Z,67232.00
2018-09-10T09:42:38.889Z,63840.00
2018-09-10T09:43:38.908Z,37280.00
2018-09-10T09:44:38.876Z,77856.00
2018-09-10T09:45:38.856Z,64352.00
2018-09-10T09:46:38.854Z,62080.00
2018-09-10T09:47:38.834Z,58368.00
2018-09-10T09:48:38.852Z,50880.00
2018-09-10T09:49:38.817Z,57312.00
2018-09-10T09:50:38.808Z,44576.00
2018-09-10T09:51:38.807Z,64736.00
2018-09-10T09:52:38.785Z,49952.00
2018-09-10T09:53:38.792Z,69824.00
2018-09-10T09:54:38.765Z,58880.00
2018-09-10T09:55:38.750Z,30176.00
2018-09-10T09:56:38.799Z,32576.00
2018-09-10T09:57:38.732Z,30624.00
2018-09-10T09:58:38.739Z,36992.00
2018-09-10T09:59:38.709Z,86048.00
2018-09-10T10:00:38.698Z,52032.00
2018-09-10T10:01:38.684Z,86432.00
2018-09-10T10:02:38.676Z,37312.00
2018-09-10T10:03:38.684Z,53216.00
2018-09-10T10:04:38.810Z,77760.00
2018-09-10T10:05:38.641Z,88096.00
2018-09-10T10:06:38.636Z,87904.00
2018-09-10T10:07:38.627Z,53312.00
2018-09-10T10:08:38.637Z,49216.00
2018-09-10T10:09:38.595Z,59232.00
2018-09-10T10:10:38.592Z,47456.00
2018-09-10T10:11:38.615Z,43488.00
2018-09-10T10:12:38.564Z,62400.00
2018-09-10T10:13:38.581Z,37024.00
2018-09-10T10:14:38.540Z,32608.00
2018-09-10T10:15:38.539Z,27936.00
2018-09-10T10:16:38.531Z,26528.00
2018-09-10T10:17:38.508Z,27168.00
2018-09-10T10:18:38.529Z,33408.00
2018-09-10T10:19:38.494Z,34432.00
2018-09-10T10:20:38.473Z,37024.00
2018-09-10T10:21:38.474Z,41952.00
2018-09-10T10:22:38.465Z,36992.00
2018-09-10T10:23:38.445Z,38912.00
2018-09-10T10:24:38.461Z,33760.00
2018-09-10T10:25:38.430Z,41568.00
2018-09-10T10:26:38.414Z,34784.00
2018-09-10T10:27:38.401Z,43488.00
2018-09-10T10:28:38.397Z,34208.00
2018-09-10T10:29:38.376Z,36544.00
2018-09-10T10:30:38.389Z,50656.00
2018-09-10T10:31:38.361Z,35808.00
2018-09-10T10:32:38.348Z,36352.00
2018-09-10T10:33:38.339Z,33280.00
2018-09-10T10:34:38.332Z,35040.00
2018-09-10T10:35:38.334Z,46304.00
2018-09-10T10:36:38.304Z,38432.00
2018-09-10T10:37:38.294Z,36832.00
2018-09-10T10:38:38.278Z,34496.00
2018-09-10T10:39:38.274Z,29888.00
2018-09-10T10:40:38.288Z,28064.00
2018-09-10T10:41:38.253Z,28448.00
2018-09-10T10:42:38.244Z,30304.00
2018-09-10T10:43:38.226Z,32128.00
2018-09-10T10:44:38.217Z,33824.00
2018-09-10T10:45:38.205Z,35808.00
2018-09-10T10:46:38.211Z,38656.00
2018-09-10T10:47:38.186Z,37376.00
2018-09-10T10:48:38.169Z,36800.00
2018-09-10T10:49:38.163Z,35680.00
2018-09-10T10:50:38.146Z,33472.00
2018-09-10T10:51:38.160Z,32224.00
2018-09-10T10:52:38.125Z,30944.00
2018-09-10T10:53:38.191Z,29728.00
2018-09-10T10:54:38.100Z,26848.00
2018-09-10T10:55:38.092Z,25120.00
2018-09-10T10:56:38.111Z,24064.00
2018-09-10T10:57:38.069Z,22592.00
2018-09-10T10:58:38.060Z,20928.00
2018-09-10T10:59:38.047Z,19712.00
2018-09-10T11:00:38.037Z,19168.00
2018-09-10T11:01:38.028Z,19552.00
2018-09-10T11:02:38.034Z,20512.00
2018-09-10T11:03:38.005Z,21120.00
2018-09-10T11:04:37.994Z,21440.00
2018-09-10T11:05:37.979Z,21536.00
2018-09-10T11:06:37.964Z,21312.00
2018-09-10T11:07:37.982Z,20992.00
2018-09-10T11:08:37.950Z,21440.00
2018-09-10T11:09:37.931Z,22464.00
2018-09-10T11:10:37.922Z,24000.00
2018-09-10T11:11:37.907Z,25312.00
2018-09-10T11:12:37.927Z,26112.00
2018-09-10T11:13:37.884Z,26112.00
2018-09-10T11:14:37.883Z,25664.00
2018-09-10T11:15:37.862Z,26272.00
2018-09-10T11:16:37.860Z,28448.00
2018-09-10T11:17:37.871Z,30720.00
2018-09-10T11:18:37.828Z,32032.00
2018-09-10T11:19:37.825Z,30016.00
2018-09-10T11:20:37.813Z,27808.00
2018-09-10T11:21:37.803Z,26208.00
2018-09-10T11:22:37.813Z,23008.00
2018-09-10T11:23:37.780Z,21856.00
2018-09-10T11:24:37.766Z,21664.00
2018-09-10T11:25:37.754Z,22336.00
2018-09-10T11:26:37.745Z,23584.00
2018-09-10T11:27:37.734Z,24928.00
2018-09-10T11:28:37.745Z,26272.00
2018-09-10T11:29:37.707Z,26560.00
2018-09-10T11:30:37.693Z,26976.00
2018-09-10T11:31:37.684Z,27776.00
2018-09-10T11:32:37.669Z,29664.00
2018-09-10T11:33:37.696Z,31680.00
2018-09-10T11:34:37.716Z,32960.00
2018-09-10T11:35:37.640Z,34144.00
2018-09-10T11:36:37.631Z,33536.00
2018-09-10T11:37:37.620Z,32992.00
2018-09-10T11:38:37.605Z,32096.00
2018-09-10T11:39:37.611Z,32032.00
2018-09-10T11:40:37.576Z,32448.00
2018-09-10T11:41:37.574Z,31968.00
2018-09-10T11:42:37.554Z,30752.00
2018-09-10T11:43:37.549Z,29728.00
2018-09-10T11:44:37.558Z,29536.00
2018-09-10T11:45:37.523Z,29568.00
2018-09-10T11:46:37.573Z,29760.00
2018-09-10T11:47:37.501Z,29888.00
2018-09-10T11:48:37.489Z,30624.00
2018-09-10T11:49:37.502Z,31648.00
2018-09-10T11:50:37.466Z,32544.00
2018-09-10T11:51:37.458Z,31392.00
2018-09-10T11:52:37.447Z,31008.00
2018-09-10T11:53:37.437Z,30752.00
2018-09-10T11:54:37.440Z,30688.00
2018-09-10T11:55:37.544Z,31776.00
2018-09-10T11:56:37.398Z,35520.00
2018-09-10T11:57:37.391Z,34432.00
2018-09-10T11:58:37.382Z,32992.00
2018-09-10T11:59:37.396Z,31392.00
2018-09-10T12:00:37.360Z,30144.00
2018-09-10T12:01:37.375Z,29568.00
2018-09-10T12:02:37.333Z,29632.00
2018-09-10T12:03:37.324Z,29664.00
2018-09-10T12:04:37.307Z,30656.00
2018-09-10T12:05:37.327Z,33792.00
2018-09-10T12:06:37.293Z,31328.00
2018-09-10T12:07:37.276Z,28576.00
2018-09-10T12:08:37.267Z,27456.00
2018-09-10T12:09:37.250Z,26240.00
2018-09-10T12:10:37.274Z,24832.00
2018-09-10T12:11:37.233Z,23744.00
2018-09-10T12:12:37.222Z,22816.00
2018-09-10T12:13:37.257Z,22144.00
2018-09-10T12:14:37.199Z,21984.00
2018-09-10T12:15:37.189Z,21216.00
2018-09-10T12:16:37.198Z,19584.00
2018-09-10T12:17:37.164Z,17888.00
2018-09-10T12:18:37.147Z,16200.00
2018-09-10T12:19:37.144Z,16004.00
2018-09-10T12:20:37.127Z,16128.00
2018-09-10T12:21:37.173Z,16432.00
2018-09-10T12:22:37.145Z,15832.00
2018-09-10T12:23:37.090Z,15112.00